Bookmark and Share
Track history (hours):
 

Oceanographic research ship CEFAS Endeavour (UK)

Detailed information on ship capabilities available from University of Delaware's Ocean Information Center.

Last reported at 2014-Apr-18 20:33 UTC. Time now 2014-Apr-18 20:48 UTC.
Position N 51°08' E 001°44'.

Length 74 m; draft 5.3 m.

Type: Ship. MMSI: 235005270.

NotesDate/timePositionNaut miles runAvg speedWind from/ knotsBaromVisibWave heightAir tempDewpointWater temp
2014-Apr-18 20:33N 51°08' E 001°44'6 4.5
2014-Apr-18 19:11N 51°04' E 001°38'6 9.9
2014-Apr-18 18:32N 51°09' E 001°42'3 3.3
2014-Apr-18 17:32N 51°06' E 001°42'5 5.2
2014-Apr-18 16:33N 51°03' E 001°36'9 8.7
2014-Apr-18 15:33N 51°10' E 001°43'6 6.3
2014-Apr-18 14:34N 51°11' E 001°53'5 4.8
2014-Apr-18 13:33N 51°09' E 001°46'5 4.7
2014-Apr-18 12:33N 51°11' E 001°53'5 4.7
2014-Apr-18 11:34N 51°09' E 001°47'3 3.2
2014-Apr-18 10:33N 51°06' E 001°43'6 5.3
2014-Apr-18 09:27N 51°03' E 001°35'5 6.0
2014-Apr-18 08:34N 51°08' E 001°40'3 2.7
2014-Apr-18 07:34N 51°07' E 001°44'6 6.0
2014-Apr-18 06:32N 51°03' E 001°36'9 9.3
2014-Apr-18 05:33N 51°10' E 001°46'5 4.6
2014-Apr-18 04:33N 51°06' E 001°42'4 2.0
2014-Apr-18 02:29N 51°10' E 001°43'3 3.5
2014-Apr-18 01:33N 51°07' E 001°44'8 7.3
2014-Apr-18 00:31N 51°03' E 001°34'10 9.8
2014-Apr-17 23:32N 51°10' E 001°44'4 4.4
2014-Apr-17 22:34N 51°06' E 001°42'6 6.0
2014-Apr-17 21:33N 51°03' E 001°34'1110.9
2014-Apr-17 20:33N 51°10' E 001°47'5 5.2
2014-Apr-17 19:33N 51°06' E 001°42'6 6.5
2014-Apr-17 18:33N 51°02' E 001°33'10 9.7
2014-Apr-17 17:30N 51°10' E 001°43'3 3.1
2014-Apr-17 16:33N 51°08' E 001°45'7 6.8
2014-Apr-17 15:33N 51°04' E 001°36'3 2.6
2014-Apr-17 14:33N 51°06' E 001°38'7 6.9
2014-Apr-17 13:34N 51°09' E 001°48'8 7.9
2014-Apr-17 12:33N 51°04' E 001°37'5 5.0
2014-Apr-17 11:29N 51°09' E 001°41'2 2.4
2014-Apr-17 10:33N 51°07' E 001°44'6 6.3
2014-Apr-17 09:33N 51°04' E 001°35'9 9.3
2014-Apr-17 08:33N 51°11' E 001°45'5 4.8
2014-Apr-17 07:33N 51°06' E 001°41'2 2.5
2014-Apr-17 06:33N 51°06' E 001°38'5 5.5
2014-Apr-17 05:33N 51°08' E 001°46'7 6.8
2014-Apr-17 04:33N 51°04' E 001°37'5 5.1
2014-Apr-17 03:33N 51°09' E 001°41'2 2.3
2014-Apr-17 02:33N 51°08' E 001°45'8 7.7
2014-Apr-17 01:34N 51°04' E 001°34'9 9.0
2014-Apr-17 00:32N 51°11' E 001°44'5 5.0
2014-Apr-16 23:33N 51°06' E 001°41'2 1.7
2014-Apr-16 22:33N 51°06' E 001°38'5 4.6
2014-Apr-16 21:33N 51°08' E 001°45'6 5.8
2014-Apr-16 20:33N 51°05' E 001°37'2 2.1
2014-Apr-16 19:33N 51°07' E 001°39'3 3.0
2014-Apr-16 18:33N 51°08' E 001°43'6 6.2
2014-Apr-16 17:32N 51°04' E 001°35'9 9.4
2014-Apr-16 16:33N 51°10' E 001°46'5 5.5
2014-Apr-16 15:34N 51°06' E 001°40'5 4.9
2014-Apr-16 14:34N 51°03' E 001°34'10 8.6
2014-Apr-16 13:22N 51°11' E 001°45'5 5.8
2014-Apr-16 12:34N 51°07' E 001°41'2 1.7
2014-Apr-16 11:31N 51°06' E 001°38'5 5.1
2014-Apr-16 10:33N 51°09' E 001°45'6 6.3
2014-Apr-16 09:33N 51°05' E 001°37'7 7.2
2014-Apr-16 08:34N 51°10' E 001°44'4 4.1
2014-Apr-16 07:34N 51°07' E 001°41'4 3.6
2014-Apr-16 06:33N 51°05' E 001°36'7 7.0
2014-Apr-16 05:34N 51°09' E 001°45'6 5.7
2014-Apr-16 04:33N 51°06' E 001°38'2 2.4
2014-Apr-16 03:32N 51°08' E 001°39'5 4.9
2014-Apr-16 02:33N 51°09' E 001°47'7 7.1
2014-Apr-16 01:33N 51°05' E 001°37'1 1.3
2014-Apr-16 00:33N 51°07' E 001°38'6 5.8
2014-Apr-15 23:33N 51°09' E 001°46'7 6.5
2014-Apr-15 22:33N 51°06' E 001°37'6 5.1
2014-Apr-15 21:17N 51°11' E 001°44'2 2.7
2014-Apr-15 20:33N 51°09' E 001°46'6 6.2
2014-Apr-15 19:33N 51°06' E 001°37'4 3.5
2014-Apr-15 18:34N 51°03' E 001°33'5 4.6
2014-Apr-15 17:33N 51°00' E 001°28'0 0.1
2014-Apr-15 16:33N 51°00' E 001°28'1 1.3
2014-Apr-15 15:33N 51°01' E 001°26'0 0.4
2014-Apr-15 14:31N 51°01' E 001°25'7 1.7
2014-Apr-15 10:34N 51°06' E 001°33'2 1.7
2014-Apr-15 09:34N 51°04' E 001°34'0 0.5
2014-Apr-15 08:34N 51°04' E 001°35'2 1.9
2014-Apr-15 07:34N 51°06' E 001°36'4 4.0
2014-Apr-15 06:34N 51°02' E 001°32'3 3.0
2014-Apr-15 05:34N 51°01' E 001°28'1 0.4
2014-Apr-15 02:34N 50°60' E 001°27'3 2.5
2014-Apr-15 01:34N 51°01' E 001°30'1 0.4
2014-Apr-14 22:34N 51°00' E 001°29'4 4.0
2014-Apr-14 21:31N 51°04' E 001°33'1 0.3
2014-Apr-14 19:34N 51°04' E 001°34'1 0.5
2014-Apr-14 17:34N 51°04' E 001°35'1 0.5
2014-Apr-14 15:33N 51°05' E 001°36'8 8.3
2014-Apr-14 14:34N 50°60' E 001°26'7 6.5
2014-Apr-14 13:33N 51°04' E 001°34'2 0.7
2014-Apr-14 10:33N 51°03' E 001°32'2 0.8
2014-Apr-14 07:31N 51°01' E 001°29'6 3.0
2014-Apr-14 05:33N 51°05' E 001°36'0 0.0
2014-Apr-13 22:34N 51°05' E 001°36'8 8.4
2014-Apr-13 21:34N 51°00' E 001°25'7 6.7
2014-Apr-13 20:31N 51°05' E 001°34'2 1.7
2014-Apr-13 19:34N 51°03' E 001°33'6 6.1
2014-Apr-13 18:34N 51°00' E 001°24'8 8.2
2014-Apr-13 17:32N 51°06' E 001°35'5 5.1
2014-Apr-13 16:34N 51°02' E 001°30'4 2.0
2014-Apr-13 14:33N 51°05' E 001°34'3 3.2
2014-Apr-13 13:34N 51°02' E 001°32'4 4.0
2014-Apr-13 12:33N 51°00' E 001°26'6 4.9
2014-Apr-13 11:23N 51°04' E 001°32'2 1.9
2014-Apr-13 10:33N 51°04' E 001°35'7 6.9
2014-Apr-13 09:34N 50°60' E 001°26'5 4.8
2014-Apr-13 08:30N 51°04' E 001°31'3 2.7
2014-Apr-13 07:34N 51°03' E 001°35'7 6.6
2014-Apr-13 06:33N 50°59' E 001°27'4 4.2
2014-Apr-13 05:34N 51°03' E 001°29'5 4.7
2014-Apr-13 04:34N 51°05' E 001°36'6 5.7
2014-Apr-13 03:33N 51°01' E 001°29'2 1.7
2014-Apr-13 02:26N 51°03' E 001°29'5 6.1
2014-Apr-13 01:34N 51°06' E 001°36'6 6.3
2014-Apr-13 00:33N 51°01' E 001°29'2 2.2
2014-Apr-12 23:28N 51°03' E 001°29'6 6.0
2014-Apr-12 22:31N 51°06' E 001°36'6 6.3
2014-Apr-12 21:33N 51°01' E 001°31'4 4.2
2014-Apr-12 20:34N 50°60' E 001°24'5 4.7
2014-Apr-12 19:33N 51°03' E 001°29'4 4.1
2014-Apr-12 18:33N 51°06' E 001°35'5 5.0
2014-Apr-12 17:34N 51°01' E 001°31'2 1.6
2014-Apr-12 16:10N 51°03' E 001°28'4 6.4
2014-Apr-12 15:33N 51°05' E 001°33'2 2.4
2014-Apr-12 14:33N 51°03' E 001°33'6 5.7
2014-Apr-12 13:33N 51°00' E 001°26'7 5.1
2014-Apr-12 12:15N 51°05' E 001°32'2 3.5
2014-Apr-12 11:34N 51°05' E 001°36'7 6.1
2014-Apr-12 10:27N 51°00' E 001°28'2 2.6
2014-Apr-12 09:33N 51°03' E 001°27'6 5.8
2014-Apr-12 08:33N 51°06' E 001°35'5 5.0
2014-Apr-12 07:33N 51°02' E 001°31'5 2.3
2014-Apr-12 05:30N 51°06' E 001°34'2 2.3
2014-Apr-12 04:33N 51°08' E 001°37'7 7.5
2014-Apr-12 03:34N 51°15' E 001°41'8 7.9
2014-Apr-12 02:33N 51°22' E 001°42'7 7.4
2014-Apr-12 01:34N 51°30' E 001°45'7 7.3
2014-Apr-12 00:34N 51°37' E 001°45'7 7.3
2014-Apr-11 23:33N 51°44' E 001°44'7 6.9
2014-Apr-11 22:34N 51°51' E 001°44'8 7.5
2014-Apr-11 21:33N 51°59' E 001°45'8 8.4
2014-Apr-11 20:33N 52°07' E 001°46'9 8.7
2014-Apr-11 19:33N 52°16' E 001°47'10 7.6
2014-Apr-11 18:13N 52°26' E 001°47'3 4.2
2014-Apr-11 17:29N 52°28' E 001°45'  

Dump ship's entire track history

sailing weather and tide predictions

CEFAS Endeavour — VQHF3 — position and weather